Terminal Aerodrome Forecast
Issued by NWS

Home | Current Version | Previous Version | Graphics & Text | Print | Product List | Glossary On
Versions: 1 2 3 4 5 6 7 8 9 10 11 12 13 14 15 16 17
000
FTUS43 KIWX 241100
TAFSBN
TAF
KSBN 241120Z 2412/2512 00000KT P6SM BKN250
     FM241400 16008KT P6SM BKN120
     FM241800 16009KT P6SM BKN080=

USA.gov is the U.S. government's official web portal to all federal, state and local government web resources and services.